createdAt,value
2018-06-07T00:01:00.802Z,18.30
2018-06-07T00:03:30.466Z,18.30
2018-06-07T00:05:58.824Z,18.30
2018-06-07T00:08:27.292Z,18.30
2018-06-07T00:10:55.901Z,18.20
2018-06-07T00:13:24.378Z,18.20
2018-06-07T00:15:52.714Z,18.20
2018-06-07T00:18:22.059Z,18.20
2018-06-07T00:20:51.476Z,18.10
2018-06-07T00:23:20.065Z,18.20
2018-06-07T00:25:48.403Z,18.10
2018-06-07T00:28:17.811Z,18.10
2018-06-07T00:30:46.238Z,18.10
2018-06-07T00:33:15.033Z,18.10
2018-06-07T00:35:43.685Z,18.10
2018-06-07T00:38:12.039Z,18.10
2018-06-07T00:40:40.702Z,18.10
2018-06-07T00:43:09.884Z,18.00
2018-06-07T00:45:38.213Z,18.00
2018-06-07T00:48:06.938Z,18.00
2018-06-07T00:50:35.274Z,17.90
2018-06-07T00:53:03.841Z,17.90
2018-06-07T00:55:33.214Z,17.80
2018-06-07T00:58:02.526Z,17.80
2018-06-07T01:00:31.979Z,17.80
2018-06-07T01:03:00.349Z,17.70
2018-06-07T01:05:28.822Z,17.70
2018-06-07T01:07:57.207Z,17.70
2018-06-07T01:10:25.798Z,17.70
2018-06-07T01:12:54.177Z,17.60
2018-06-07T01:15:22.578Z,17.50
2018-06-07T01:17:51.637Z,17.50
2018-06-07T01:20:20.755Z,17.50
2018-06-07T01:22:49.237Z,17.50
2018-06-07T01:25:17.930Z,17.40
2018-06-07T01:27:47.179Z,17.40
2018-06-07T01:30:24.828Z,17.40
2018-06-07T01:35:57.210Z,17.20
2018-06-07T01:38:37.608Z,17.20
2018-06-07T01:41:06.018Z,17.20
2018-06-07T01:43:35.198Z,17.10
2018-06-07T01:46:03.542Z,17.00
2018-06-07T01:48:31.912Z,17.00
2018-06-07T01:51:00.290Z,17.00
2018-06-07T01:53:28.638Z,17.00
2018-06-07T01:55:57.746Z,16.90
2018-06-07T01:58:26.110Z,16.90
2018-06-07T02:00:55.242Z,16.80
2018-06-07T02:03:23.574Z,16.80
2018-06-07T02:05:52.714Z,16.80
2018-06-07T02:08:21.105Z,16.80
2018-06-07T02:10:49.445Z,16.80
2018-06-07T02:13:17.805Z,16.80
2018-06-07T02:15:46.274Z,16.70
2018-06-07T02:18:14.627Z,16.70
2018-06-07T02:20:42.960Z,16.70
2018-06-07T02:23:11.381Z,16.70
2018-06-07T02:25:39.745Z,16.70
2018-06-07T02:28:08.086Z,16.70
2018-06-07T02:30:37.198Z,16.60
2018-06-07T02:33:06.412Z,16.60
2018-06-07T02:35:34.766Z,16.60
2018-06-07T02:38:04.021Z,16.60
2018-06-07T02:40:32.366Z,16.50
2018-06-07T02:43:00.755Z,16.50
2018-06-07T02:45:29.098Z,16.50
2018-06-07T02:47:58.216Z,16.40
2018-06-07T02:50:27.352Z,16.40
2018-06-07T02:52:55.718Z,16.40
2018-06-07T02:55:24.069Z,16.40
2018-06-07T02:57:52.428Z,16.40
2018-06-07T03:00:21.678Z,16.30
2018-06-07T03:02:50.042Z,16.30
2018-06-07T03:05:18.404Z,16.30
2018-06-07T03:07:47.503Z,16.20
2018-06-07T03:10:15.839Z,16.20
2018-06-07T03:12:44.295Z,16.20
2018-06-07T03:15:12.641Z,16.20
2018-06-07T03:17:41.008Z,16.20
2018-06-07T03:20:09.419Z,16.20
2018-06-07T03:22:37.776Z,16.10
2018-06-07T03:25:06.906Z,16.20
2018-06-07T03:27:35.282Z,16.10
2018-06-07T03:30:03.623Z,16.20
2018-06-07T03:32:32.765Z,16.20
2018-06-07T03:35:01.141Z,16.10
2018-06-07T03:37:29.474Z,16.10
2018-06-07T03:39:58.607Z,16.20
2018-06-07T03:42:26.937Z,16.10
2018-06-07T03:44:55.306Z,16.10
2018-06-07T03:47:23.642Z,16.20
2018-06-07T03:49:52.023Z,16.20
2018-06-07T03:52:20.373Z,16.20
2018-06-07T03:54:48.778Z,16.20
2018-06-07T03:57:17.165Z,16.20
2018-06-07T03:59:45.507Z,16.20
2018-06-07T04:02:14.617Z,16.30
2018-06-07T04:04:43.122Z,16.20
2018-06-07T04:07:11.498Z,16.20
2018-06-07T04:09:39.880Z,16.20
2018-06-07T04:12:08.582Z,16.30
2018-06-07T04:14:36.930Z,16.30
2018-06-07T04:17:05.273Z,16.40
2018-06-07T04:19:33.721Z,16.30
2018-06-07T04:22:02.147Z,16.40
2018-06-07T04:24:31.406Z,16.30
2018-06-07T04:26:59.976Z,16.30
2018-06-07T04:29:29.214Z,16.40
2018-06-07T04:31:57.564Z,16.40
2018-06-07T04:34:25.914Z,16.50
2018-06-07T04:36:54.265Z,16.50
2018-06-07T04:39:23.367Z,16.60
2018-06-07T04:41:52.487Z,16.60
2018-06-07T04:44:20.838Z,16.60
2018-06-07T04:46:49.248Z,16.70
2018-06-07T04:49:17.570Z,16.70
2018-06-07T04:51:46.069Z,16.80
2018-06-07T04:54:15.322Z,16.80
2018-06-07T04:56:43.907Z,16.90
2018-06-07T04:59:12.265Z,17.00
2018-06-07T05:01:41.382Z,17.00
2018-06-07T05:04:09.716Z,17.20
2018-06-07T05:06:38.199Z,17.30
2018-06-07T05:09:06.482Z,17.40
2018-06-07T05:11:35.599Z,17.60
2018-06-07T05:14:03.944Z,17.60
2018-06-07T05:16:32.369Z,17.70
2018-06-07T05:19:00.704Z,17.80
2018-06-07T05:21:29.805Z,18.10
2018-06-07T05:23:58.935Z,18.20
2018-06-07T05:26:27.265Z,18.20
2018-06-07T05:28:55.706Z,18.30
2018-06-07T05:31:24.069Z,18.40
2018-06-07T05:33:52.418Z,18.50
2018-06-07T05:36:21.552Z,18.70
2018-06-07T05:38:49.940Z,18.70
2018-06-07T05:41:19.002Z,19.00
2018-06-07T05:43:49.770Z,19.10
2018-06-07T05:46:18.306Z,19.10
2018-06-07T05:48:47.856Z,19.20
2018-06-07T05:51:16.254Z,19.30
2018-06-07T05:53:44.611Z,19.40
2018-06-07T05:56:12.963Z,19.60
2018-06-07T05:58:42.151Z,19.70
2018-06-07T06:01:11.276Z,19.80
2018-06-07T06:03:40.365Z,19.90
2018-06-07T06:06:08.710Z,19.80
2018-06-07T06:08:37.106Z,20.00
2018-06-07T06:11:05.777Z,20.00
2018-06-07T06:13:34.118Z,20.00
2018-06-07T06:16:02.458Z,20.00
2018-06-07T06:18:30.845Z,20.10
2018-06-07T06:20:59.190Z,20.30
2018-06-07T06:23:27.552Z,20.30
2018-06-07T06:25:55.890Z,20.40
2018-06-07T06:28:24.290Z,20.50
2018-06-07T06:30:52.625Z,20.60
2018-06-07T06:33:21.145Z,20.70
2018-06-07T06:35:50.341Z,20.90
2018-06-07T06:38:38.573Z,20.80
2018-06-07T06:41:06.911Z,20.90
2018-06-07T06:43:35.400Z,20.90
2018-06-07T06:46:03.722Z,20.90
2018-06-07T06:48:32.184Z,20.90
2018-06-07T06:51:00.531Z,20.90
2018-06-07T06:53:29.646Z,21.00
2018-06-07T06:55:57.982Z,20.90
2018-06-07T06:58:26.390Z,21.00
2018-06-07T07:00:55.518Z,21.10
2018-06-07T07:03:23.869Z,21.10
2018-06-07T07:05:52.994Z,21.30
2018-06-07T07:08:21.339Z,21.20
2018-06-07T07:10:50.469Z,21.30
2018-06-07T07:13:18.822Z,21.30
2018-06-07T07:15:47.950Z,21.50
2018-06-07T07:18:16.293Z,21.40
2018-06-07T07:20:45.393Z,21.60
2018-06-07T07:23:14.545Z,21.60
2018-06-07T07:25:42.856Z,21.60
2018-06-07T07:28:11.285Z,21.60
2018-06-07T07:30:39.635Z,21.80
2018-06-07T07:33:08.762Z,21.90
2018-06-07T07:35:37.140Z,21.90
2018-06-07T07:38:05.461Z,21.90
2018-06-07T07:40:33.819Z,22.00
2018-06-07T07:43:02.183Z,22.10
2018-06-07T07:45:30.559Z,22.20
2018-06-07T07:47:58.900Z,22.30
2018-06-07T07:50:28.115Z,22.40
2018-06-07T07:52:56.459Z,22.40
2018-06-07T07:55:24.886Z,22.50
2018-06-07T07:57:53.271Z,22.50
2018-06-07T08:00:21.678Z,22.60
2018-06-07T08:02:50.009Z,22.70
2018-06-07T08:05:18.356Z,22.70
2018-06-07T08:07:46.897Z,22.70
2018-06-07T08:10:15.248Z,22.80
2018-06-07T08:12:44.054Z,22.80
2018-06-07T08:15:12.404Z,22.90
2018-06-07T08:17:41.509Z,23.00
2018-06-07T08:20:10.770Z,23.10
2018-06-07T08:22:39.091Z,23.10
2018-06-07T08:25:07.507Z,23.20
2018-06-07T08:27:35.862Z,23.30
2018-06-07T08:30:04.239Z,23.40
2018-06-07T08:32:32.584Z,23.50
2018-06-07T08:35:00.950Z,23.50
2018-06-07T08:37:29.276Z,23.70
2018-06-07T08:39:57.642Z,23.70
2018-06-07T08:42:26.163Z,23.80
2018-06-07T08:44:54.504Z,23.90
2018-06-07T08:47:22.856Z,24.00
2018-06-07T08:49:51.193Z,24.00
2018-06-07T08:52:19.558Z,24.20
2018-06-07T08:54:48.038Z,24.30
2018-06-07T08:57:16.442Z,24.40
2018-06-07T08:59:44.809Z,24.50
2018-06-07T09:02:13.178Z,24.60
2018-06-07T09:04:41.518Z,24.70
2018-06-07T09:07:09.970Z,24.70
2018-06-07T09:09:38.228Z,24.70
2018-06-07T09:12:06.612Z,24.90
2018-06-07T09:14:34.974Z,24.90
2018-06-07T09:17:03.481Z,25.00
2018-06-07T09:19:31.896Z,25.10
2018-06-07T09:22:00.197Z,25.20
2018-06-07T09:24:29.307Z,25.60
2018-06-07T09:26:57.644Z,25.60
2018-06-07T09:29:25.989Z,25.70
2018-06-07T09:31:54.352Z,25.90
2018-06-07T09:34:22.765Z,25.90
2018-06-07T09:36:51.070Z,25.90
2018-06-07T09:39:19.593Z,26.00
2018-06-07T09:41:48.037Z,26.10
2018-06-07T09:44:16.464Z,26.20
2018-06-07T09:46:44.893Z,26.50
2018-06-07T09:49:13.220Z,26.70
2018-06-07T09:51:41.547Z,26.80
2018-06-07T09:54:09.979Z,27.00
2018-06-07T09:56:38.322Z,27.10
2018-06-07T09:59:06.680Z,27.30
2018-06-07T10:01:35.105Z,27.40
2018-06-07T10:04:03.508Z,27.70
2018-06-07T10:06:31.846Z,28.00
2018-06-07T10:09:00.242Z,28.20
2018-06-07T10:11:28.713Z,28.40
2018-06-07T10:13:57.153Z,28.70
2018-06-07T10:16:25.506Z,29.10
2018-06-07T10:18:53.862Z,29.50
2018-06-07T10:21:22.301Z,29.70
2018-06-07T10:23:50.830Z,30.00
2018-06-07T10:26:19.290Z,30.10
2018-06-07T10:28:48.492Z,30.30
2018-06-07T10:31:16.902Z,30.30
2018-06-07T10:33:45.280Z,30.40
2018-06-07T10:36:13.636Z,30.70
2018-06-07T10:38:42.030Z,30.80
2018-06-07T10:41:10.450Z,31.10
2018-06-07T10:43:38.910Z,31.20
2018-06-07T10:46:07.292Z,31.20
2018-06-07T10:48:35.669Z,31.30
2018-06-07T10:51:04.073Z,31.30
2018-06-07T10:53:32.531Z,31.50
2018-06-07T10:56:01.007Z,31.60
2018-06-07T10:58:29.396Z,31.60
2018-06-07T11:00:58.785Z,31.80
2018-06-07T11:03:27.179Z,31.80
2018-06-07T11:05:55.554Z,31.80
2018-06-07T11:08:23.933Z,31.90
2018-06-07T11:10:52.314Z,32.20
2018-06-07T11:13:20.794Z,32.10
2018-06-07T11:15:49.199Z,32.10
2018-06-07T11:18:17.602Z,32.20
2018-06-07T11:20:46.755Z,32.40
2018-06-07T11:23:15.425Z,32.30
2018-06-07T11:25:43.882Z,32.50
2018-06-07T11:28:13.026Z,32.80
2018-06-07T11:30:41.497Z,32.80
2018-06-07T11:33:09.867Z,32.70
2018-06-07T11:35:38.288Z,32.50
2018-06-07T11:38:06.696Z,32.50
2018-06-07T11:40:35.100Z,32.50
2018-06-07T11:43:04.464Z,32.50
2018-06-07T11:45:32.839Z,32.70
2018-06-07T11:48:01.355Z,32.90
2018-06-07T11:50:29.708Z,33.00
2018-06-07T11:52:59.153Z,33.40
2018-06-07T11:55:27.647Z,33.40
2018-06-07T11:57:56.022Z,33.50
2018-06-07T12:00:24.414Z,33.70
2018-06-07T12:02:52.783Z,33.90
2018-06-07T12:05:21.322Z,34.10
2018-06-07T12:07:49.715Z,34.10
2018-06-07T12:10:18.425Z,34.10
2018-06-07T12:12:46.808Z,34.10
2018-06-07T12:15:15.167Z,34.20
2018-06-07T12:17:43.835Z,34.30
2018-06-07T12:20:12.197Z,34.30
2018-06-07T12:22:40.887Z,34.50
2018-06-07T12:25:10.056Z,34.70
2018-06-07T12:27:38.427Z,34.70
2018-06-07T12:30:06.799Z,34.90
2018-06-07T12:32:35.631Z,35.00
2018-06-07T12:35:04.016Z,35.10
2018-06-07T12:37:33.273Z,35.10
2018-06-07T12:40:01.729Z,35.10
2018-06-07T12:42:30.330Z,35.20
2018-06-07T12:44:58.696Z,35.20
2018-06-07T12:47:27.070Z,35.20
2018-06-07T12:49:55.482Z,35.20
2018-06-07T12:52:24.152Z,35.50
2018-06-07T12:54:53.719Z,35.60
2018-06-07T12:57:23.161Z,35.60
2018-06-07T12:59:51.559Z,35.60
2018-06-07T13:02:20.229Z,35.70
2018-06-07T13:04:49.004Z,35.80
2018-06-07T13:07:17.398Z,35.90
2018-06-07T13:09:45.778Z,36.00
2018-06-07T13:12:14.975Z,35.90
2018-06-07T13:14:43.365Z,36.00
2018-06-07T13:17:12.555Z,36.00
2018-06-07T13:19:41.003Z,36.10
2018-06-07T13:22:09.993Z,36.20
2018-06-07T13:24:39.909Z,36.50
2018-06-07T13:27:10.133Z,36.40
2018-06-07T13:29:39.900Z,36.60
2018-06-07T13:32:08.282Z,36.50
2018-06-07T13:34:36.764Z,36.40
2018-06-07T13:37:05.631Z,36.60
2018-06-07T13:39:34.043Z,36.50
2018-06-07T13:42:02.515Z,36.50
2018-06-07T13:44:31.002Z,36.60
2018-06-07T13:47:00.640Z,36.80
2018-06-07T13:49:30.596Z,36.90
2018-06-07T13:51:58.946Z,36.80
2018-06-07T13:54:27.703Z,36.90
2018-06-07T13:56:56.070Z,36.80
2018-06-07T13:59:24.457Z,36.70
2018-06-07T14:01:52.941Z,36.70
2018-06-07T14:04:21.315Z,36.60
2018-06-07T14:06:49.687Z,36.70
2018-06-07T14:09:18.055Z,36.70
2018-06-07T14:11:46.566Z,36.70
2018-06-07T14:14:14.916Z,36.70
2018-06-07T14:16:43.299Z,36.70
2018-06-07T14:19:11.692Z,36.70
2018-06-07T14:21:40.120Z,36.80
2018-06-07T14:24:08.490Z,36.70
2018-06-07T14:26:36.855Z,36.70
2018-06-07T14:29:06.022Z,36.60
2018-06-07T14:31:34.507Z,36.60
2018-06-07T14:34:03.795Z,36.70
2018-06-07T14:36:32.570Z,36.60
2018-06-07T14:39:00.939Z,36.70
2018-06-07T14:41:29.346Z,36.80
2018-06-07T14:43:57.717Z,36.70
2018-06-07T14:46:26.097Z,36.80
2018-06-07T14:48:54.487Z,36.80
2018-06-07T14:51:22.974Z,36.90
2018-06-07T14:53:51.442Z,36.90
2018-06-07T14:56:19.823Z,37.00
2018-06-07T14:58:48.496Z,37.00
2018-06-07T15:01:17.166Z,37.10
2018-06-07T15:03:45.587Z,37.10
2018-06-07T15:08:48.602Z,36.80
2018-06-07T15:11:16.995Z,36.80
2018-06-07T15:13:45.548Z,36.70
2018-06-07T15:16:13.915Z,36.60
2018-06-07T15:18:42.277Z,36.60
2018-06-07T15:21:10.667Z,36.60
2018-06-07T15:23:39.051Z,36.70
2018-06-07T15:26:07.455Z,36.80
2018-06-07T15:28:35.879Z,36.90
2018-06-07T15:31:05.022Z,36.70
2018-06-07T15:33:33.425Z,36.70
2018-06-07T15:36:02.139Z,36.60
2018-06-07T15:38:31.292Z,36.40
2018-06-07T15:40:59.671Z,36.40
2018-06-07T15:43:28.052Z,36.20
2018-06-07T15:45:56.667Z,36.10
2018-06-07T15:49:38.464Z,36.10
2018-06-07T15:52:06.841Z,36.10
2018-06-07T15:54:35.293Z,36.10
2018-06-07T15:57:03.680Z,36.20
2018-06-07T15:59:32.135Z,36.10
2018-06-07T16:02:00.493Z,36.30
2018-06-07T16:04:28.854Z,36.40
2018-06-07T16:06:57.987Z,36.50
2018-06-07T16:09:26.331Z,36.50
2018-06-07T16:11:54.817Z,36.60
2018-06-07T16:14:23.325Z,36.70
2018-06-07T16:16:51.690Z,36.70
2018-06-07T16:19:20.074Z,36.80
2018-06-07T16:21:48.455Z,36.90
2018-06-07T16:24:16.797Z,37.00
2018-06-07T16:26:45.136Z,37.10
2018-06-07T16:29:13.519Z,37.30
2018-06-07T16:31:41.958Z,37.50
2018-06-07T16:34:11.279Z,37.80
2018-06-07T16:36:39.784Z,37.80
2018-06-07T16:41:43.800Z,39.50
2018-06-07T16:44:12.166Z,39.40
2018-06-07T16:46:40.482Z,40.00
2018-06-07T16:49:08.938Z,40.70
2018-06-07T16:51:37.347Z,41.30
2018-06-07T16:54:05.723Z,41.90
2018-06-07T16:56:34.255Z,42.00
2018-06-07T16:59:03.357Z,42.10
2018-06-07T17:01:31.712Z,42.00
2018-06-07T17:04:00.933Z,42.50
2018-06-07T17:06:29.286Z,42.50
2018-06-07T17:08:58.401Z,42.50
2018-06-07T17:11:26.810Z,42.40
2018-06-07T17:13:55.166Z,42.40
2018-06-07T17:16:23.559Z,42.30
2018-06-07T17:18:51.894Z,42.30
2018-06-07T17:21:21.024Z,42.10
2018-06-07T17:23:49.361Z,42.10
2018-06-07T17:26:17.901Z,42.00
2018-06-07T17:28:46.281Z,41.70
2018-06-07T17:31:15.390Z,41.10
2018-06-07T17:33:43.889Z,41.10
2018-06-07T17:36:12.350Z,40.60
2018-06-07T17:38:40.683Z,39.90
2018-06-07T17:41:09.832Z,39.40
2018-06-07T17:43:38.281Z,39.40
2018-06-07T17:46:07.497Z,39.20
2018-06-07T17:48:35.886Z,39.20
2018-06-07T17:51:04.273Z,38.90
2018-06-07T17:53:32.844Z,38.60
2018-06-07T17:56:01.185Z,38.30
2018-06-07T17:58:29.720Z,38.20
2018-06-07T18:00:58.968Z,38.10
2018-06-07T18:03:28.071Z,38.00
2018-06-07T18:05:56.465Z,38.00
2018-06-07T18:08:24.840Z,37.80
2018-06-07T18:10:53.291Z,37.50
2018-06-07T18:13:21.731Z,37.00
2018-06-07T18:15:50.950Z,36.20
2018-06-07T18:18:19.447Z,36.20
2018-06-07T18:20:47.766Z,35.80
2018-06-07T18:23:16.269Z,35.30
2018-06-07T18:25:44.635Z,34.70
2018-06-07T18:28:13.011Z,34.30
2018-06-07T18:30:41.815Z,33.80
2018-06-07T18:33:10.291Z,33.30
2018-06-07T18:35:38.663Z,32.80
2018-06-07T18:38:07.031Z,32.50
2018-06-07T18:40:35.480Z,32.30
2018-06-07T18:43:04.619Z,32.10
2018-06-07T18:45:32.992Z,32.10
2018-06-07T18:48:01.369Z,32.10
2018-06-07T18:50:30.225Z,32.20
2018-06-07T18:52:58.666Z,32.50
2018-06-07T18:55:27.042Z,32.80
2018-06-07T18:57:55.439Z,33.10
2018-06-07T19:00:23.808Z,33.20
2018-06-07T19:02:52.176Z,33.00
2018-06-07T19:05:20.588Z,32.50
2018-06-07T19:07:48.940Z,31.90
2018-06-07T19:10:17.306Z,31.30
2018-06-07T19:12:45.662Z,30.40
2018-06-07T19:15:14.039Z,29.70
2018-06-07T19:17:42.411Z,29.20
2018-06-07T19:23:12.186Z,28.40
2018-06-07T19:25:40.561Z,28.10
2018-06-07T19:28:09.060Z,27.80
2018-06-07T19:30:37.625Z,27.50
2018-06-07T19:36:06.040Z,27.10
2018-06-07T19:38:34.406Z,26.90
2018-06-07T19:43:59.981Z,26.40
2018-06-07T19:46:28.349Z,26.10
2018-06-07T19:48:56.722Z,25.90
2018-06-07T19:51:25.083Z,25.80
2018-06-07T19:53:53.924Z,25.70
2018-06-07T19:56:22.373Z,25.70
2018-06-07T19:58:50.715Z,25.60
2018-06-07T20:01:19.074Z,25.50
2018-06-07T20:03:47.595Z,25.50
2018-06-07T20:06:15.975Z,25.40
2018-06-07T20:08:44.324Z,25.40
2018-06-07T20:11:12.734Z,25.20
2018-06-07T20:13:41.645Z,25.10
2018-06-07T20:16:10.211Z,25.10
2018-06-07T20:18:38.583Z,25.00
2018-06-07T20:21:06.921Z,25.00
2018-06-07T20:23:36.046Z,24.80
2018-06-07T20:26:04.876Z,24.80
2018-06-07T20:28:33.276Z,24.70
2018-06-07T20:31:02.531Z,24.60
2018-06-07T20:33:30.908Z,24.60
2018-06-07T20:35:59.341Z,24.50
2018-06-07T20:38:28.554Z,24.40
2018-06-07T20:40:57.651Z,24.40
2018-06-07T20:43:25.998Z,24.40
2018-06-07T20:45:54.382Z,24.40
2018-06-07T20:48:22.825Z,24.30
2018-06-07T20:50:51.203Z,24.30
2018-06-07T20:53:19.651Z,24.30
2018-06-07T20:55:48.048Z,24.20
2018-06-07T20:58:16.422Z,24.20
2018-06-07T21:00:44.781Z,24.20
2018-06-07T21:03:13.892Z,24.00
2018-06-07T21:05:42.246Z,24.00
2018-06-07T21:08:11.349Z,23.90
2018-06-07T21:10:40.480Z,23.80
2018-06-07T21:13:08.931Z,23.80
2018-06-07T21:15:38.918Z,23.80
2018-06-07T21:18:07.267Z,23.80
2018-06-07T21:20:36.892Z,23.80
2018-06-07T21:23:05.561Z,23.80
2018-06-07T21:25:33.931Z,23.70
2018-06-07T21:28:02.287Z,23.70
2018-06-07T21:30:30.639Z,23.70
2018-06-07T21:32:58.973Z,23.60
2018-06-07T21:35:27.560Z,23.60
2018-06-07T21:37:55.989Z,23.50
2018-06-07T21:40:25.116Z,23.20
2018-06-07T21:42:53.476Z,23.20
2018-06-07T21:45:21.815Z,23.10
2018-06-07T21:47:50.174Z,23.10
2018-06-07T21:50:18.594Z,23.10
2018-06-07T21:52:46.959Z,23.10
2018-06-07T21:55:15.418Z,23.00
2018-06-07T21:57:43.857Z,22.90
2018-06-07T22:00:13.082Z,22.90
2018-06-07T22:02:41.467Z,22.80
2018-06-07T22:05:10.186Z,22.80
2018-06-07T22:07:38.834Z,22.70
2018-06-07T22:10:07.171Z,22.60
2018-06-07T22:12:36.321Z,22.50
2018-06-07T22:15:04.669Z,22.50
2018-06-07T22:17:33.791Z,22.40
2018-06-07T22:20:02.170Z,22.40
2018-06-07T22:22:30.555Z,22.40
2018-06-07T22:24:59.535Z,22.40
2018-06-07T22:27:27.922Z,22.30
2018-06-07T22:29:56.574Z,22.30
2018-06-07T22:32:25.131Z,22.20
2018-06-07T22:34:53.467Z,22.20
2018-06-07T22:37:21.853Z,22.30
2018-06-07T22:39:50.687Z,22.20
2018-06-07T22:42:19.047Z,22.20
2018-06-07T22:44:47.413Z,22.10
2018-06-07T22:47:16.087Z,22.00
2018-06-07T22:49:44.463Z,22.00
2018-06-07T22:52:12.913Z,22.00
2018-06-07T22:54:41.464Z,22.00
2018-06-07T22:57:10.005Z,22.00
2018-06-07T22:59:38.688Z,21.90
2018-06-07T23:02:07.213Z,21.90
2018-06-07T23:04:35.558Z,21.90
2018-06-07T23:07:03.951Z,21.80
2018-06-07T23:09:32.845Z,21.80
2018-06-07T23:12:01.449Z,21.80
2018-06-07T23:14:30.334Z,21.70
2018-06-07T23:16:58.691Z,21.70
2018-06-07T23:19:27.043Z,21.60
2018-06-07T23:21:55.756Z,21.60
2018-06-07T23:24:24.327Z,21.60
2018-06-07T23:26:52.702Z,21.60
2018-06-07T23:29:21.083Z,21.60
2018-06-07T23:31:49.831Z,21.50
2018-06-07T23:34:19.169Z,21.30
2018-06-07T23:36:47.665Z,21.30
2018-06-07T23:39:16.858Z,21.20
2018-06-07T23:41:45.735Z,21.20
2018-06-07T23:44:14.305Z,21.20
2018-06-07T23:46:42.665Z,21.10
2018-06-07T23:49:11.108Z,21.10
2018-06-07T23:51:39.487Z,21.10
2018-06-07T23:54:07.899Z,21.10
2018-06-07T23:56:36.240Z,21.10
2018-06-07T23:59:04.606Z,21.00
